Agnew, Washington
Current Conditions -  °F | °C
As of 11:53 PM on Sunday 23 Nov 2014 (Local Time) from KCLM Reporting Station
Overcast Overcast  
Wind Chill: 40°   Ceiling: 11000
Heat Index: 44°   Visibility: 10mi
Dew Point: 36°   Wind: 7mph
Humidity: 73%   Direction: 210°SSW
Pressure: 30.33"   Gusts: NA
Location:  48.0203°N, 123.478°W
Report Text: KCLM 240753Z AUTO 21006KT 10SM OVC110 07/02 A3033 RMK AO2 SLP272 T00670022 401170061 $
Loading
Personal Weather Stations






























Interactive Weather Map New forecast layout! Learn more

10-Day Weather Forecast

Advertisements
Track Severe Weather on mobile